sensor_id;sensor_type;location;lat;lon;timestamp;temperature;humidity
76537;DHT22;65381;51.254;15.592;2023-05-07T00:02:01;7.30;89.40
76537;DHT22;65381;51.254;15.592;2023-05-07T00:04:30;7.30;89.40
76537;DHT22;65381;51.254;15.592;2023-05-07T00:07:04;7.20;89.50
76537;DHT22;65381;51.254;15.592;2023-05-07T00:09:33;7.20;89.50
76537;DHT22;65381;51.254;15.592;2023-05-07T00:12:01;7.20;89.50
76537;DHT22;65381;51.254;15.592;2023-05-07T00:14:30;7.20;89.50
76537;DHT22;65381;51.254;15.592;2023-05-07T00:16:59;7.20;89.70
76537;DHT22;65381;51.254;15.592;2023-05-07T00:19:28;7.20;89.70
76537;DHT22;65381;51.254;15.592;2023-05-07T00:21:56;7.20;89.70
76537;DHT22;65381;51.254;15.592;2023-05-07T00:24:25;7.20;89.70
76537;DHT22;65381;51.254;15.592;2023-05-07T00:26:52;7.20;89.70
76537;DHT22;65381;51.254;15.592;2023-05-07T00:29:21;7.20;89.50
76537;DHT22;65381;51.254;15.592;2023-05-07T00:31:49;7.20;89.50
76537;DHT22;65381;51.254;15.592;2023-05-07T00:34:19;7.20;89.70
76537;DHT22;65381;51.254;15.592;2023-05-07T00:36:47;7.20;89.60
76537;DHT22;65381;51.254;15.592;2023-05-07T00:39:14;7.20;89.60
76537;DHT22;65381;51.254;15.592;2023-05-07T00:41:42;7.20;89.70
76537;DHT22;65381;51.254;15.592;2023-05-07T00:44:11;7.20;89.60
76537;DHT22;65381;51.254;15.592;2023-05-07T00:46:40;7.20;89.60
76537;DHT22;65381;51.254;15.592;2023-05-07T00:49:09;7.20;89.60
76537;DHT22;65381;51.254;15.592;2023-05-07T00:51:37;7.20;89.70
76537;DHT22;65381;51.254;15.592;2023-05-07T00:54:06;7.20;89.70
76537;DHT22;65381;51.254;15.592;2023-05-07T00:56:34;7.20;89.60
76537;DHT22;65381;51.254;15.592;2023-05-07T00:59:02;7.20;89.60
76537;DHT22;65381;51.254;15.592;2023-05-07T01:01:32;7.20;89.70
76537;DHT22;65381;51.254;15.592;2023-05-07T01:04:01;7.20;89.70
76537;DHT22;65381;51.254;15.592;2023-05-07T01:06:32;7.20;89.70
76537;DHT22;65381;51.254;15.592;2023-05-07T01:09:01;7.20;89.70
76537;DHT22;65381;51.254;15.592;2023-05-07T01:11:32;7.20;89.90
76537;DHT22;65381;51.254;15.592;2023-05-07T01:14:01;7.20;89.90
76537;DHT22;65381;51.254;15.592;2023-05-07T01:16:31;7.30;89.90
76537;DHT22;65381;51.254;15.592;2023-05-07T01:19:00;7.30;89.80
76537;DHT22;65381;51.254;15.592;2023-05-07T01:21:33;7.30;89.80
76537;DHT22;65381;51.254;15.592;2023-05-07T01:24:04;7.30;89.70
76537;DHT22;65381;51.254;15.592;2023-05-07T01:26:33;7.30;89.70
76537;DHT22;65381;51.254;15.592;2023-05-07T01:29:02;7.30;89.80
76537;DHT22;65381;51.254;15.592;2023-05-07T01:31:30;7.30;89.70
76537;DHT22;65381;51.254;15.592;2023-05-07T01:34:01;7.20;89.70
76537;DHT22;65381;51.254;15.592;2023-05-07T01:36:31;7.20;89.80
76537;DHT22;65381;51.254;15.592;2023-05-07T01:39:01;7.20;89.80
76537;DHT22;65381;51.254;15.592;2023-05-07T01:41:30;7.20;89.80
76537;DHT22;65381;51.254;15.592;2023-05-07T01:43:59;7.20;89.90
76537;DHT22;65381;51.254;15.592;2023-05-07T01:46:28;7.20;89.90
76537;DHT22;65381;51.254;15.592;2023-05-07T01:49:01;7.20;89.90
76537;DHT22;65381;51.254;15.592;2023-05-07T01:51:30;7.20;90.00
76537;DHT22;65381;51.254;15.592;2023-05-07T01:53:59;7.20;90.00
76537;DHT22;65381;51.254;15.592;2023-05-07T01:56:27;7.20;90.10
76537;DHT22;65381;51.254;15.592;2023-05-07T01:58:56;7.40;90.10
76537;DHT22;65381;51.254;15.592;2023-05-07T02:01:25;7.40;90.00
76537;DHT22;65381;51.254;15.592;2023-05-07T02:03:54;7.40;90.00
76537;DHT22;65381;51.254;15.592;2023-05-07T02:06:25;7.40;90.00
76537;DHT22;65381;51.254;15.592;2023-05-07T02:08:58;7.40;90.00
76537;DHT22;65381;51.254;15.592;2023-05-07T02:11:27;7.40;90.00
76537;DHT22;65381;51.254;15.592;2023-05-07T02:13:55;7.40;90.00
76537;DHT22;65381;51.254;15.592;2023-05-07T02:16:23;7.40;90.00
76537;DHT22;65381;51.254;15.592;2023-05-07T02:18:52;7.40;89.90
76537;DHT22;65381;51.254;15.592;2023-05-07T02:21:20;7.30;90.10
76537;DHT22;65381;51.254;15.592;2023-05-07T02:23:48;7.40;90.20
76537;DHT22;65381;51.254;15.592;2023-05-07T02:26:16;7.40;90.00
76537;DHT22;65381;51.254;15.592;2023-05-07T02:28:45;7.30;90.10
76537;DHT22;65381;51.254;15.592;2023-05-07T02:31:13;7.30;90.10
76537;DHT22;65381;51.254;15.592;2023-05-07T02:33:41;7.20;90.20
76537;DHT22;65381;51.254;15.592;2023-05-07T02:36:10;7.30;90.20
76537;DHT22;65381;51.254;15.592;2023-05-07T02:39:05;7.20;90.20
76537;DHT22;65381;51.254;15.592;2023-05-07T02:41:33;7.20;90.20
76537;DHT22;65381;51.254;15.592;2023-05-07T02:44:01;7.20;90.30
76537;DHT22;65381;51.254;15.592;2023-05-07T02:46:29;7.20;90.40
76537;DHT22;65381;51.254;15.592;2023-05-07T02:49:05;7.30;90.40
76537;DHT22;65381;51.254;15.592;2023-05-07T02:51:33;7.30;90.40
76537;DHT22;65381;51.254;15.592;2023-05-07T02:54:10;7.30;90.40
76537;DHT22;65381;51.254;15.592;2023-05-07T02:56:39;7.40;90.40
76537;DHT22;65381;51.254;15.592;2023-05-07T02:59:07;7.30;90.30
76537;DHT22;65381;51.254;15.592;2023-05-07T03:01:39;7.30;90.30
76537;DHT22;65381;51.254;15.592;2023-05-07T03:04:09;7.40;90.40
76537;DHT22;65381;51.254;15.592;2023-05-07T03:06:37;7.40;90.50
76537;DHT22;65381;51.254;15.592;2023-05-07T03:09:05;7.40;90.40
76537;DHT22;65381;51.254;15.592;2023-05-07T03:11:33;7.40;90.30
76537;DHT22;65381;51.254;15.592;2023-05-07T03:14:02;7.40;90.20
76537;DHT22;65381;51.254;15.592;2023-05-07T03:16:30;7.40;90.30
76537;DHT22;65381;51.254;15.592;2023-05-07T03:19:00;7.40;90.30
76537;DHT22;65381;51.254;15.592;2023-05-07T03:21:29;7.30;90.30
76537;DHT22;65381;51.254;15.592;2023-05-07T03:23:59;7.40;90.50
76537;DHT22;65381;51.254;15.592;2023-05-07T03:26:27;7.40;90.60
76537;DHT22;65381;51.254;15.592;2023-05-07T03:28:55;7.40;90.40
76537;DHT22;65381;51.254;15.592;2023-05-07T03:31:23;7.40;90.40
76537;DHT22;65381;51.254;15.592;2023-05-07T03:33:54;7.40;90.50
76537;DHT22;65381;51.254;15.592;2023-05-07T03:36:24;7.50;90.40
76537;DHT22;65381;51.254;15.592;2023-05-07T03:38:56;7.40;90.40
76537;DHT22;65381;51.254;15.592;2023-05-07T03:41:28;7.40;90.10
76537;DHT22;65381;51.254;15.592;2023-05-07T03:43:58;7.40;90.40
76537;DHT22;65381;51.254;15.592;2023-05-07T03:46:26;7.30;90.50
76537;DHT22;65381;51.254;15.592;2023-05-07T03:48:56;7.40;90.50
76537;DHT22;65381;51.254;15.592;2023-05-07T03:51:24;7.30;90.40
76537;DHT22;65381;51.254;15.592;2023-05-07T03:53:53;7.30;90.50
76537;DHT22;65381;51.254;15.592;2023-05-07T03:56:23;7.20;90.50
76537;DHT22;65381;51.254;15.592;2023-05-07T03:58:56;7.20;90.60
76537;DHT22;65381;51.254;15.592;2023-05-07T04:01:24;7.30;90.60
76537;DHT22;65381;51.254;15.592;2023-05-07T04:03:53;7.30;90.60
76537;DHT22;65381;51.254;15.592;2023-05-07T04:06:22;7.30;90.60
76537;DHT22;65381;51.254;15.592;2023-05-07T04:08:51;7.30;90.60
76537;DHT22;65381;51.254;15.592;2023-05-07T04:11:19;7.30;90.50
76537;DHT22;65381;51.254;15.592;2023-05-07T04:13:48;7.20;90.40
76537;DHT22;65381;51.254;15.592;2023-05-07T04:16:21;7.20;90.60
76537;DHT22;65381;51.254;15.592;2023-05-07T04:18:49;7.30;90.70
76537;DHT22;65381;51.254;15.592;2023-05-07T04:21:19;7.20;90.60
76537;DHT22;65381;51.254;15.592;2023-05-07T04:23:50;7.30;90.60
76537;DHT22;65381;51.254;15.592;2023-05-07T04:26:19;7.20;90.50
76537;DHT22;65381;51.254;15.592;2023-05-07T04:28:49;7.20;90.50
76537;DHT22;65381;51.254;15.592;2023-05-07T04:31:17;7.20;90.60
76537;DHT22;65381;51.254;15.592;2023-05-07T04:33:50;7.20;90.60
76537;DHT22;65381;51.254;15.592;2023-05-07T04:36:19;7.20;90.60
76537;DHT22;65381;51.254;15.592;2023-05-07T04:38:57;7.10;90.60
76537;DHT22;65381;51.254;15.592;2023-05-07T04:41:26;7.10;90.70
76537;DHT22;65381;51.254;15.592;2023-05-07T04:43:56;7.10;90.80
76537;DHT22;65381;51.254;15.592;2023-05-07T04:46:29;7.10;90.90
76537;DHT22;65381;51.254;15.592;2023-05-07T04:48:59;7.20;91.00
76537;DHT22;65381;51.254;15.592;2023-05-07T04:51:27;7.20;91.00
76537;DHT22;65381;51.254;15.592;2023-05-07T04:53:57;7.20;90.90
76537;DHT22;65381;51.254;15.592;2023-05-07T04:56:28;7.20;90.80
76537;DHT22;65381;51.254;15.592;2023-05-07T04:58:59;7.20;90.90
76537;DHT22;65381;51.254;15.592;2023-05-07T05:01:27;7.20;90.90
76537;DHT22;65381;51.254;15.592;2023-05-07T05:03:56;7.30;90.60
76537;DHT22;65381;51.254;15.592;2023-05-07T05:06:24;7.30;90.50
76537;DHT22;65381;51.254;15.592;2023-05-07T05:08:54;7.20;90.60
76537;DHT22;65381;51.254;15.592;2023-05-07T05:11:25;7.20;90.60
76537;DHT22;65381;51.254;15.592;2023-05-07T05:13:55;7.20;90.70
76537;DHT22;65381;51.254;15.592;2023-05-07T05:16:23;7.20;90.80
76537;DHT22;65381;51.254;15.592;2023-05-07T05:18:54;7.30;90.70
76537;DHT22;65381;51.254;15.592;2023-05-07T05:21:22;7.40;90.80
76537;DHT22;65381;51.254;15.592;2023-05-07T05:23:54;7.30;90.60
76537;DHT22;65381;51.254;15.592;2023-05-07T05:26:26;7.30;90.40
76537;DHT22;65381;51.254;15.592;2023-05-07T05:28:57;7.20;90.40
76537;DHT22;65381;51.254;15.592;2023-05-07T05:31:27;7.20;90.60
76537;DHT22;65381;51.254;15.592;2023-05-07T05:33:56;7.20;90.80
76537;DHT22;65381;51.254;15.592;2023-05-07T05:36:24;7.20;90.80
76537;DHT22;65381;51.254;15.592;2023-05-07T05:38:56;7.30;90.80
76537;DHT22;65381;51.254;15.592;2023-05-07T05:41:24;7.30;90.60
76537;DHT22;65381;51.254;15.592;2023-05-07T05:43:53;7.30;90.70
76537;DHT22;65381;51.254;15.592;2023-05-07T05:46:22;7.30;90.70
76537;DHT22;65381;51.254;15.592;2023-05-07T05:48:51;7.30;90.70
76537;DHT22;65381;51.254;15.592;2023-05-07T05:51:20;7.40;90.90
76537;DHT22;65381;51.254;15.592;2023-05-07T05:53:49;7.40;90.90
76537;DHT22;65381;51.254;15.592;2023-05-07T05:56:17;7.50;90.90
76537;DHT22;65381;51.254;15.592;2023-05-07T05:58:46;7.50;91.00
76537;DHT22;65381;51.254;15.592;2023-05-07T06:01:14;7.60;91.00
76537;DHT22;65381;51.254;15.592;2023-05-07T06:03:43;7.60;90.80
76537;DHT22;65381;51.254;15.592;2023-05-07T06:06:14;7.60;90.80
76537;DHT22;65381;51.254;15.592;2023-05-07T06:08:45;7.60;90.30
76537;DHT22;65381;51.254;15.592;2023-05-07T06:11:19;7.50;90.00
76537;DHT22;65381;51.254;15.592;2023-05-07T06:13:48;7.50;90.10
76537;DHT22;65381;51.254;15.592;2023-05-07T06:16:17;7.40;90.20
76537;DHT22;65381;51.254;15.592;2023-05-07T06:18:46;7.30;90.30
76537;DHT22;65381;51.254;15.592;2023-05-07T06:21:15;7.30;90.60
76537;DHT22;65381;51.254;15.592;2023-05-07T06:23:43;7.40;91.00
76537;DHT22;65381;51.254;15.592;2023-05-07T06:26:12;7.50;90.90
76537;DHT22;65381;51.254;15.592;2023-05-07T06:28:44;7.50;91.00
76537;DHT22;65381;51.254;15.592;2023-05-07T06:31:15;7.50;91.10
76537;DHT22;65381;51.254;15.592;2023-05-07T06:33:52;7.60;91.10
76537;DHT22;65381;51.254;15.592;2023-05-07T06:36:23;7.70;91.00
76537;DHT22;65381;51.254;15.592;2023-05-07T06:38:55;7.80;91.00
76537;DHT22;65381;51.254;15.592;2023-05-07T06:41:22;8.00;91.00
76537;DHT22;65381;51.254;15.592;2023-05-07T06:43:51;8.00;90.90
76537;DHT22;65381;51.254;15.592;2023-05-07T06:46:37;8.00;91.00
76537;DHT22;65381;51.254;15.592;2023-05-07T06:49:07;8.20;91.30
76537;DHT22;65381;51.254;15.592;2023-05-07T06:51:35;8.30;91.00
76537;DHT22;65381;51.254;15.592;2023-05-07T06:54:04;8.50;90.90
76537;DHT22;65381;51.254;15.592;2023-05-07T06:56:35;8.60;90.60
76537;DHT22;65381;51.254;15.592;2023-05-07T06:59:06;8.60;90.60
76537;DHT22;65381;51.254;15.592;2023-05-07T07:01:38;8.60;90.50
76537;DHT22;65381;51.254;15.592;2023-05-07T07:04:08;8.80;90.40
76537;DHT22;65381;51.254;15.592;2023-05-07T07:06:38;8.80;90.40
76537;DHT22;65381;51.254;15.592;2023-05-07T07:09:10;8.90;90.30
76537;DHT22;65381;51.254;15.592;2023-05-07T07:11:37;9.00;90.50
76537;DHT22;65381;51.254;15.592;2023-05-07T07:14:07;9.00;90.40
76537;DHT22;65381;51.254;15.592;2023-05-07T07:16:42;9.10;89.80
76537;DHT22;65381;51.254;15.592;2023-05-07T07:19:10;9.10;89.70
76537;DHT22;65381;51.254;15.592;2023-05-07T07:21:39;9.20;89.90
76537;DHT22;65381;51.254;15.592;2023-05-07T07:24:07;9.20;89.60
76537;DHT22;65381;51.254;15.592;2023-05-07T07:26:36;9.20;89.90
76537;DHT22;65381;51.254;15.592;2023-05-07T07:29:05;9.40;90.10
76537;DHT22;65381;51.254;15.592;2023-05-07T07:31:34;9.40;90.00
76537;DHT22;65381;51.254;15.592;2023-05-07T07:34:02;9.50;89.60
76537;DHT22;65381;51.254;15.592;2023-05-07T07:36:31;9.40;89.10
76537;DHT22;65381;51.254;15.592;2023-05-07T07:39:15;9.40;89.40
76537;DHT22;65381;51.254;15.592;2023-05-07T07:41:44;9.40;89.80
76537;DHT22;65381;51.254;15.592;2023-05-07T07:44:14;9.50;90.20
76537;DHT22;65381;51.254;15.592;2023-05-07T07:46:47;9.60;89.70
76537;DHT22;65381;51.254;15.592;2023-05-07T07:49:17;9.60;89.00
76537;DHT22;65381;51.254;15.592;2023-05-07T07:51:45;9.50;88.90
76537;DHT22;65381;51.254;15.592;2023-05-07T07:54:14;9.40;89.20
76537;DHT22;65381;51.254;15.592;2023-05-07T07:56:42;9.40;89.30
76537;DHT22;65381;51.254;15.592;2023-05-07T07:59:12;9.40;89.50
76537;DHT22;65381;51.254;15.592;2023-05-07T08:01:42;9.50;89.40
76537;DHT22;65381;51.254;15.592;2023-05-07T08:04:10;9.50;89.30
76537;DHT22;65381;51.254;15.592;2023-05-07T08:06:41;9.60;89.80
76537;DHT22;65381;51.254;15.592;2023-05-07T08:09:11;9.80;89.70
76537;DHT22;65381;51.254;15.592;2023-05-07T08:11:41;9.80;89.00
76537;DHT22;65381;51.254;15.592;2023-05-07T08:14:10;9.70;88.60
76537;DHT22;65381;51.254;15.592;2023-05-07T08:16:39;10.00;90.70
76537;DHT22;65381;51.254;15.592;2023-05-07T08:19:07;10.40;90.20
76537;DHT22;65381;51.254;15.592;2023-05-07T08:21:38;10.60;88.80
76537;DHT22;65381;51.254;15.592;2023-05-07T08:24:09;10.60;87.80
76537;DHT22;65381;51.254;15.592;2023-05-07T08:26:37;10.50;87.90
76537;DHT22;65381;51.254;15.592;2023-05-07T08:29:09;10.40;87.70
76537;DHT22;65381;51.254;15.592;2023-05-07T08:31:37;10.20;87.60
76537;DHT22;65381;51.254;15.592;2023-05-07T08:34:07;10.00;87.80
76537;DHT22;65381;51.254;15.592;2023-05-07T08:36:39;9.80;87.90
76537;DHT22;65381;51.254;15.592;2023-05-07T08:39:11;9.60;87.70
76537;DHT22;65381;51.254;15.592;2023-05-07T08:41:40;9.40;87.60
76537;DHT22;65381;51.254;15.592;2023-05-07T08:44:12;9.20;87.80
76537;DHT22;65381;51.254;15.592;2023-05-07T08:46:45;9.00;88.30
76537;DHT22;65381;51.254;15.592;2023-05-07T08:49:18;9.00;88.90
76537;DHT22;65381;51.254;15.592;2023-05-07T08:51:46;9.00;89.40
76537;DHT22;65381;51.254;15.592;2023-05-07T08:54:18;9.10;89.70
76537;DHT22;65381;51.254;15.592;2023-05-07T08:56:48;9.20;89.50
76537;DHT22;65381;51.254;15.592;2023-05-07T08:59:16;9.20;89.30
76537;DHT22;65381;51.254;15.592;2023-05-07T09:01:45;9.20;89.40
76537;DHT22;65381;51.254;15.592;2023-05-07T09:04:15;9.20;89.10
76537;DHT22;65381;51.254;15.592;2023-05-07T09:06:43;9.10;89.10
76537;DHT22;65381;51.254;15.592;2023-05-07T09:09:17;9.00;89.20
76537;DHT22;65381;51.254;15.592;2023-05-07T09:11:47;9.00;89.10
76537;DHT22;65381;51.254;15.592;2023-05-07T09:14:21;9.00;89.40
76537;DHT22;65381;51.254;15.592;2023-05-07T09:16:52;9.00;89.60
76537;DHT22;65381;51.254;15.592;2023-05-07T09:19:25;9.00;89.90
76537;DHT22;65381;51.254;15.592;2023-05-07T09:22:02;9.20;90.00
76537;DHT22;65381;51.254;15.592;2023-05-07T09:24:40;9.40;91.00
76537;DHT22;65381;51.254;15.592;2023-05-07T09:27:11;9.80;91.80
76537;DHT22;65381;51.254;15.592;2023-05-07T09:29:44;10.40;92.50
76537;DHT22;65381;51.254;15.592;2023-05-07T09:32:14;11.00;91.60
76537;DHT22;65381;51.254;15.592;2023-05-07T09:34:45;11.50;91.50
76537;DHT22;65381;51.254;15.592;2023-05-07T09:37:18;12.00;90.60
76537;DHT22;65381;51.254;15.592;2023-05-07T09:39:48;12.40;89.40
76537;DHT22;65381;51.254;15.592;2023-05-07T09:42:24;12.20;87.20
76537;DHT22;65381;51.254;15.592;2023-05-07T09:45:00;11.70;86.50
76537;DHT22;65381;51.254;15.592;2023-05-07T09:47:36;11.30;86.40
76537;DHT22;65381;51.254;15.592;2023-05-07T09:50:08;11.00;87.30
76537;DHT22;65381;51.254;15.592;2023-05-07T09:52:40;10.80;87.90
76537;DHT22;65381;51.254;15.592;2023-05-07T09:55:10;11.00;89.80
76537;DHT22;65381;51.254;15.592;2023-05-07T09:57:42;11.70;90.90
76537;DHT22;65381;51.254;15.592;2023-05-07T10:00:12;12.30;89.70
76537;DHT22;65381;51.254;15.592;2023-05-07T10:02:50;12.50;88.10
76537;DHT22;65381;51.254;15.592;2023-05-07T10:05:32;12.40;87.50
76537;DHT22;65381;51.254;15.592;2023-05-07T10:08:02;12.30;87.50
76537;DHT22;65381;51.254;15.592;2023-05-07T10:10:35;12.00;86.50
76537;DHT22;65381;51.254;15.592;2023-05-07T10:13:08;11.70;85.90
76537;DHT22;65381;51.254;15.592;2023-05-07T10:15:47;11.30;85.50
76537;DHT22;65381;51.254;15.592;2023-05-07T10:18:16;10.80;85.50
76537;DHT22;65381;51.254;15.592;2023-05-07T10:20:51;10.50;86.20
76537;DHT22;65381;51.254;15.592;2023-05-07T10:23:24;10.30;86.70
76537;DHT22;65381;51.254;15.592;2023-05-07T10:25:58;10.10;87.10
76537;DHT22;65381;51.254;15.592;2023-05-07T10:28:33;10.00;86.80
76537;DHT22;65381;51.254;15.592;2023-05-07T10:33:57;9.60;87.60
76537;DHT22;65381;51.254;15.592;2023-05-07T10:36:26;9.60;87.80
76537;DHT22;65381;51.254;15.592;2023-05-07T10:38:55;9.50;88.40
76537;DHT22;65381;51.254;15.592;2023-05-07T10:41:24;9.60;88.60
76537;DHT22;65381;51.254;15.592;2023-05-07T10:43:53;9.60;88.30
76537;DHT22;65381;51.254;15.592;2023-05-07T10:46:27;9.50;88.70
76537;DHT22;65381;51.254;15.592;2023-05-07T10:52:11;9.80;89.50
76537;DHT22;65381;51.254;15.592;2023-05-07T10:54:43;10.00;89.10
76537;DHT22;65381;51.254;15.592;2023-05-07T10:57:34;10.10;88.80
76537;DHT22;65381;51.254;15.592;2023-05-07T11:06:14;10.00;87.80
76537;DHT22;65381;51.254;15.592;2023-05-07T11:09:03;9.80;88.30
76537;DHT22;65381;51.254;15.592;2023-05-07T11:11:53;9.80;88.50
76537;DHT22;65381;51.254;15.592;2023-05-07T11:17:14;9.80;89.10
76537;DHT22;65381;51.254;15.592;2023-05-07T11:19:52;10.00;89.80
76537;DHT22;65381;51.254;15.592;2023-05-07T11:22:37;10.30;89.80
76537;DHT22;65381;51.254;15.592;2023-05-07T11:25:20;10.50;89.50
76537;DHT22;65381;51.254;15.592;2023-05-07T11:27:55;10.60;89.50
76537;DHT22;65381;51.254;15.592;2023-05-07T11:30:28;10.70;88.60
76537;DHT22;65381;51.254;15.592;2023-05-07T11:32:57;10.50;87.90
76537;DHT22;65381;51.254;15.592;2023-05-07T11:35:26;10.30;87.90
76537;DHT22;65381;51.254;15.592;2023-05-07T11:37:59;10.10;87.80
76537;DHT22;65381;51.254;15.592;2023-05-07T11:40:31;10.00;87.70
76537;DHT22;65381;51.254;15.592;2023-05-07T11:42:59;10.00;87.20
76537;DHT22;65381;51.254;15.592;2023-05-07T11:45:38;9.90;87.40
76537;DHT22;65381;51.254;15.592;2023-05-07T11:48:06;9.90;87.90
76537;DHT22;65381;51.254;15.592;2023-05-07T11:50:34;9.80;88.30
76537;DHT22;65381;51.254;15.592;2023-05-07T11:53:08;9.90;88.70
76537;DHT22;65381;51.254;15.592;2023-05-07T11:55:36;10.00;88.90
76537;DHT22;65381;51.254;15.592;2023-05-07T11:58:04;10.00;89.50
76537;DHT22;65381;51.254;15.592;2023-05-07T12:00:35;10.20;89.80
76537;DHT22;65381;51.254;15.592;2023-05-07T12:03:04;10.40;89.90
76537;DHT22;65381;51.254;15.592;2023-05-07T12:05:34;10.60;89.70
76537;DHT22;65381;51.254;15.592;2023-05-07T12:08:02;10.70;89.10
76537;DHT22;65381;51.254;15.592;2023-05-07T12:10:30;10.70;88.40
76537;DHT22;65381;51.254;15.592;2023-05-07T12:12:58;10.50;87.20
76537;DHT22;65381;51.254;15.592;2023-05-07T12:15:27;10.30;86.90
76537;DHT22;65381;51.254;15.592;2023-05-07T12:17:55;10.10;87.40
76537;DHT22;65381;51.254;15.592;2023-05-07T12:20:24;10.00;88.10
76537;DHT22;65381;51.254;15.592;2023-05-07T12:22:53;10.00;87.90
76537;DHT22;65381;51.254;15.592;2023-05-07T12:25:22;10.00;88.20
76537;DHT22;65381;51.254;15.592;2023-05-07T12:27:53;10.00;88.40
76537;DHT22;65381;51.254;15.592;2023-05-07T12:30:21;10.00;88.70
76537;DHT22;65381;51.254;15.592;2023-05-07T12:32:53;10.10;89.10
76537;DHT22;65381;51.254;15.592;2023-05-07T12:35:29;10.30;89.20
76537;DHT22;65381;51.254;15.592;2023-05-07T12:37:58;10.50;89.40
76537;DHT22;65381;51.254;15.592;2023-05-07T12:40:44;10.50;89.20
76537;DHT22;65381;51.254;15.592;2023-05-07T12:45:48;10.90;89.50
76537;DHT22;65381;51.254;15.592;2023-05-07T12:48:17;11.10;89.30
76537;DHT22;65381;51.254;15.592;2023-05-07T12:50:51;11.30;89.80
76537;DHT22;65381;51.254;15.592;2023-05-07T12:53:23;11.50;89.30
76537;DHT22;65381;51.254;15.592;2023-05-07T12:55:55;11.70;88.30
76537;DHT22;65381;51.254;15.592;2023-05-07T12:58:29;11.80;87.70
76537;DHT22;65381;51.254;15.592;2023-05-07T13:01:01;11.80;88.00
76537;DHT22;65381;51.254;15.592;2023-05-07T13:03:31;11.70;87.30
76537;DHT22;65381;51.254;15.592;2023-05-07T13:06:10;11.70;87.70
76537;DHT22;65381;51.254;15.592;2023-05-07T13:08:41;11.60;88.00
76537;DHT22;65381;51.254;15.592;2023-05-07T13:11:13;11.60;87.90
76537;DHT22;65381;51.254;15.592;2023-05-07T13:13:41;11.40;87.00
76537;DHT22;65381;51.254;15.592;2023-05-07T13:16:10;11.20;87.00
76537;DHT22;65381;51.254;15.592;2023-05-07T13:18:39;11.00;86.60
76537;DHT22;65381;51.254;15.592;2023-05-07T13:21:08;10.70;86.80
76537;DHT22;65381;51.254;15.592;2023-05-07T13:23:37;10.60;87.10
76537;DHT22;65381;51.254;15.592;2023-05-07T13:26:06;10.40;87.50
76537;DHT22;65381;51.254;15.592;2023-05-07T13:28:55;10.40;87.60
76537;DHT22;65381;51.254;15.592;2023-05-07T13:31:25;10.30;87.60
76537;DHT22;65381;51.254;15.592;2023-05-07T13:33:52;10.30;88.00
76537;DHT22;65381;51.254;15.592;2023-05-07T13:36:21;10.30;88.50
76537;DHT22;65381;51.254;15.592;2023-05-07T13:38:50;10.30;87.70
76537;DHT22;65381;51.254;15.592;2023-05-07T13:41:19;10.30;88.10
76537;DHT22;65381;51.254;15.592;2023-05-07T13:43:47;10.30;88.50
76537;DHT22;65381;51.254;15.592;2023-05-07T13:46:16;10.30;88.40
76537;DHT22;65381;51.254;15.592;2023-05-07T13:48:45;10.30;88.60
76537;DHT22;65381;51.254;15.592;2023-05-07T13:51:14;10.30;88.80
76537;DHT22;65381;51.254;15.592;2023-05-07T13:53:42;10.40;89.00
76537;DHT22;65381;51.254;15.592;2023-05-07T13:56:12;10.50;89.10
76537;DHT22;65381;51.254;15.592;2023-05-07T13:58:41;10.50;88.50
76537;DHT22;65381;51.254;15.592;2023-05-07T14:01:26;10.40;88.20
76537;DHT22;65381;51.254;15.592;2023-05-07T14:03:56;10.30;87.90
76537;DHT22;65381;51.254;15.592;2023-05-07T14:06:26;10.30;88.00
76537;DHT22;65381;51.254;15.592;2023-05-07T14:08:54;10.30;88.20
76537;DHT22;65381;51.254;15.592;2023-05-07T14:11:26;10.40;88.70
76537;DHT22;65381;51.254;15.592;2023-05-07T14:13:54;10.50;88.90
76537;DHT22;65381;51.254;15.592;2023-05-07T14:16:22;10.50;88.80
76537;DHT22;65381;51.254;15.592;2023-05-07T14:18:50;10.50;89.10
76537;DHT22;65381;51.254;15.592;2023-05-07T14:21:19;10.50;88.80
76537;DHT22;65381;51.254;15.592;2023-05-07T14:23:48;10.50;89.30
76537;DHT22;65381;51.254;15.592;2023-05-07T14:26:18;10.50;89.50
76537;DHT22;65381;51.254;15.592;2023-05-07T14:28:46;10.60;89.30
76537;DHT22;65381;51.254;15.592;2023-05-07T14:31:15;10.60;89.50
76537;DHT22;65381;51.254;15.592;2023-05-07T14:33:44;10.60;89.70
76537;DHT22;65381;51.254;15.592;2023-05-07T14:36:13;10.60;89.40
76537;DHT22;65381;51.254;15.592;2023-05-07T14:38:41;10.50;89.10
76537;DHT22;65381;51.254;15.592;2023-05-07T14:41:09;10.50;89.60
76537;DHT22;65381;51.254;15.592;2023-05-07T14:43:37;10.50;89.60
76537;DHT22;65381;51.254;15.592;2023-05-07T14:46:06;10.50;89.80
76537;DHT22;65381;51.254;15.592;2023-05-07T14:48:34;10.60;89.80
76537;DHT22;65381;51.254;15.592;2023-05-07T14:51:02;10.60;90.00
76537;DHT22;65381;51.254;15.592;2023-05-07T14:53:30;10.80;90.10
76537;DHT22;65381;51.254;15.592;2023-05-07T14:55:58;10.80;89.40
76537;DHT22;65381;51.254;15.592;2023-05-07T14:58:27;10.80;89.00
76537;DHT22;65381;51.254;15.592;2023-05-07T15:00:56;10.70;88.70
76537;DHT22;65381;51.254;15.592;2023-05-07T15:03:24;10.70;88.70
76537;DHT22;65381;51.254;15.592;2023-05-07T15:05:53;10.60;88.70
76537;DHT22;65381;51.254;15.592;2023-05-07T15:08:21;10.50;88.50
76537;DHT22;65381;51.254;15.592;2023-05-07T15:10:49;10.40;88.20
76537;DHT22;65381;51.254;15.592;2023-05-07T15:13:17;10.40;88.40
76537;DHT22;65381;51.254;15.592;2023-05-07T15:15:46;10.30;88.60
76537;DHT22;65381;51.254;15.592;2023-05-07T15:18:14;10.30;88.20
76537;DHT22;65381;51.254;15.592;2023-05-07T15:20:43;10.30;88.80
76537;DHT22;65381;51.254;15.592;2023-05-07T15:23:11;10.20;88.90
76537;DHT22;65381;51.254;15.592;2023-05-07T15:25:46;10.20;89.20
76537;DHT22;65381;51.254;15.592;2023-05-07T15:28:18;10.30;89.40
76537;DHT22;65381;51.254;15.592;2023-05-07T15:30:47;10.30;89.50
76537;DHT22;65381;51.254;15.592;2023-05-07T15:33:16;10.40;89.60
76537;DHT22;65381;51.254;15.592;2023-05-07T15:35:45;10.50;89.40
76537;DHT22;65381;51.254;15.592;2023-05-07T15:38:13;10.50;89.60
76537;DHT22;65381;51.254;15.592;2023-05-07T15:40:42;10.50;89.30
76537;DHT22;65381;51.254;15.592;2023-05-07T15:43:11;10.50;89.10
76537;DHT22;65381;51.254;15.592;2023-05-07T15:45:40;10.40;89.20
76537;DHT22;65381;51.254;15.592;2023-05-07T15:48:09;10.30;89.30
76537;DHT22;65381;51.254;15.592;2023-05-07T15:50:38;10.30;89.40
76537;DHT22;65381;51.254;15.592;2023-05-07T15:53:07;10.30;89.50
76537;DHT22;65381;51.254;15.592;2023-05-07T15:55:37;10.30;89.50
76537;DHT22;65381;51.254;15.592;2023-05-07T15:58:05;10.20;89.60
76537;DHT22;65381;51.254;15.592;2023-05-07T16:00:34;10.20;89.80
76537;DHT22;65381;51.254;15.592;2023-05-07T16:03:03;10.30;89.80